createdAt,value
2018-08-20T00:02:55.101Z,100821.27
2018-08-20T00:05:58.867Z,100825.51
2018-08-20T00:09:02.830Z,100836.18
2018-08-20T00:12:07.671Z,100847.58
2018-08-20T00:15:11.295Z,100841.12
2018-08-20T00:18:18.987Z,100851.98
2018-08-20T00:21:22.540Z,100853.70
2018-08-20T00:24:26.104Z,100850.98
2018-08-20T00:27:31.557Z,100855.07
2018-08-20T00:30:35.196Z,100848.97
2018-08-20T00:33:38.713Z,100851.52
2018-08-20T00:36:43.810Z,100847.63
2018-08-20T00:39:47.328Z,100851.19
2018-08-20T00:42:50.898Z,100848.80
2018-08-20T00:45:54.400Z,100849.15
2018-08-20T00:48:58.986Z,100853.59
2018-08-20T00:52:02.529Z,100850.70
2018-08-20T00:55:07.500Z,100847.32
2018-08-20T00:58:10.977Z,100844.94
2018-08-20T01:01:14.493Z,100844.59
2018-08-20T01:04:17.970Z,100846.78
2018-08-20T01:07:21.479Z,100852.06
2018-08-20T01:10:24.964Z,100849.87
2018-08-20T01:13:29.416Z,100856.82
2018-08-20T01:16:32.922Z,100850.87
2018-08-20T01:19:36.444Z,100854.23
2018-08-20T01:22:39.955Z,100857.30
2018-08-20T01:25:43.447Z,100861.19
2018-08-20T01:28:46.999Z,100858.66
2018-08-20T01:31:50.484Z,100857.97
2018-08-20T01:34:53.959Z,100855.20
2018-08-20T01:37:57.436Z,100856.38
2018-08-20T01:41:00.921Z,100859.08
2018-08-20T01:44:04.408Z,100864.56
2018-08-20T01:47:07.900Z,100859.63
2018-08-20T01:50:11.408Z,100864.08
2018-08-20T01:53:14.967Z,100862.22
2018-08-20T01:56:18.481Z,100865.23
2018-08-20T01:59:22.986Z,100858.78
2018-08-20T02:02:26.619Z,100859.67
2018-08-20T02:05:30.220Z,100866.41
2018-08-20T02:08:33.769Z,100859.84
2018-08-20T02:11:37.324Z,100862.54
2018-08-20T02:14:40.819Z,100862.00
2018-08-20T02:17:45.273Z,100860.41
2018-08-20T02:20:48.768Z,100865.35
2018-08-20T02:23:52.240Z,100867.80
2018-08-20T02:26:56.028Z,100859.88
2018-08-20T02:29:59.491Z,100853.26
2018-08-20T02:33:03.020Z,100848.05
2018-08-20T02:36:06.505Z,100851.59
2018-08-20T02:39:11.952Z,100840.26
2018-08-20T02:42:15.543Z,100838.50
2018-08-20T02:45:19.616Z,100837.66
2018-08-20T02:48:24.266Z,100837.37
2018-08-20T02:51:27.793Z,100831.78
2018-08-20T02:54:31.293Z,100835.83
2018-08-20T02:57:34.922Z,100834.23
2018-08-20T03:00:39.456Z,100839.66
2018-08-20T03:03:43.051Z,100840.02
2018-08-20T03:06:46.566Z,100836.87
2018-08-20T03:09:52.360Z,100839.81
2018-08-20T03:12:55.896Z,100836.48
2018-08-20T03:16:00.564Z,100836.95
2018-08-20T03:19:04.373Z,100831.47
2018-08-20T03:22:07.956Z,100835.11
2018-08-20T03:25:11.594Z,100836.00
2018-08-20T03:28:15.368Z,100830.46
2018-08-20T03:31:18.968Z,100835.17
2018-08-20T03:34:24.513Z,100838.52
2018-08-20T03:37:28.113Z,100828.33
2018-08-20T03:40:31.732Z,100840.05
2018-08-20T03:43:35.372Z,100841.06
2018-08-20T03:46:39.851Z,100840.36
2018-08-20T03:49:43.460Z,100838.39
2018-08-20T03:52:47.250Z,100839.87
2018-08-20T03:55:50.960Z,100839.22
2018-08-20T03:58:54.580Z,100838.88
2018-08-20T04:01:58.689Z,100835.34
2018-08-20T04:05:02.405Z,100837.89
2018-08-20T04:08:06.143Z,100838.54
2018-08-20T04:11:09.974Z,100843.78
2018-08-20T04:14:14.810Z,100840.10
2018-08-20T04:17:25.512Z,100845.91
2018-08-20T04:20:35.020Z,100843.23
2018-08-20T04:23:38.556Z,100848.16
2018-08-20T04:26:42.157Z,100846.91
2018-08-20T04:29:45.826Z,100854.36
2018-08-20T04:32:49.478Z,100855.77
2018-08-20T04:35:53.147Z,100857.64
2018-08-20T04:38:56.776Z,100860.69
2018-08-20T04:42:03.331Z,100859.56
2018-08-20T04:45:08.463Z,100856.06
2018-08-20T04:48:14.103Z,100859.00
2018-08-20T04:51:20.750Z,100859.98
2018-08-20T04:54:27.189Z,100856.33
2018-08-20T04:57:35.972Z,100861.07
2018-08-20T05:00:40.969Z,100860.36
2018-08-20T05:03:49.205Z,100858.85
2018-08-20T05:06:54.848Z,100858.52
2018-08-20T05:09:58.614Z,100860.25
2018-08-20T05:13:02.773Z,100862.95
2018-08-20T05:16:06.402Z,100862.16
2018-08-20T05:19:10.957Z,100861.56
2018-08-20T05:22:14.941Z,100854.11
2018-08-20T05:25:18.647Z,100868.43
2018-08-20T05:28:22.534Z,100866.17
2018-08-20T05:31:29.098Z,100869.38
2018-08-20T05:34:32.700Z,100878.67
2018-08-20T05:37:36.411Z,100875.48
2018-08-20T05:40:41.103Z,100874.80
2018-08-20T05:43:47.173Z,100881.41
2018-08-20T05:46:52.643Z,100882.66
2018-08-20T05:49:56.761Z,100886.48
2018-08-20T05:53:00.928Z,100880.06
2018-08-20T05:56:05.730Z,100891.31
2018-08-20T05:59:09.695Z,100893.83
2018-08-20T06:02:14.518Z,100895.75
2018-08-20T06:05:19.140Z,100895.98
2018-08-20T06:08:25.808Z,100904.33
2018-08-20T06:11:30.024Z,100908.28
2018-08-20T06:14:35.332Z,100916.52
2018-08-20T06:17:40.327Z,100914.52
2018-08-20T06:20:46.181Z,100922.16
2018-08-20T06:23:51.943Z,100921.05
2018-08-20T06:26:56.635Z,100922.07
2018-08-20T06:30:01.367Z,100921.80
2018-08-20T06:33:05.169Z,100931.47
2018-08-20T06:36:09.120Z,100934.20
2018-08-20T06:39:13.743Z,100931.34
2018-08-20T06:42:20.854Z,100926.96
2018-08-20T06:45:25.355Z,100927.86
2018-08-20T06:48:29.691Z,100922.63
2018-08-20T06:51:33.537Z,100921.30
2018-08-20T06:54:37.324Z,100914.96
2018-08-20T06:57:41.116Z,100913.69
2018-08-20T07:00:45.263Z,100914.02
2018-08-20T07:03:49.002Z,100919.31
2018-08-20T07:06:53.069Z,100911.69
2018-08-20T07:09:56.957Z,100914.08
2018-08-20T07:13:11.827Z,100914.43
2018-08-20T07:16:15.642Z,100920.39
2018-08-20T07:19:20.444Z,100911.89
2018-08-20T07:22:25.425Z,100914.33
2018-08-20T07:25:29.219Z,100914.16
2018-08-20T07:28:32.934Z,100919.94
2018-08-20T07:31:37.339Z,100921.69
2018-08-20T07:34:43.105Z,100933.39
2018-08-20T07:37:47.525Z,100932.54
2018-08-20T07:40:53.089Z,100939.32
2018-08-20T07:43:58.661Z,100942.58
2018-08-20T07:47:02.397Z,100952.11
2018-08-20T07:50:06.688Z,100954.12
2018-08-20T07:53:11.487Z,100958.53
2018-08-20T07:56:16.471Z,100960.59
2018-08-20T07:59:20.324Z,100956.53
2018-08-20T08:02:24.004Z,100965.67
2018-08-20T08:05:27.831Z,100960.05
2018-08-20T08:08:33.782Z,100958.87
2018-08-20T08:11:38.357Z,100960.59
2018-08-20T08:14:43.481Z,100968.08
2018-08-20T08:17:48.207Z,100963.13
2018-08-20T08:20:52.311Z,100963.48
2018-08-20T08:23:58.875Z,100975.36
2018-08-20T08:27:04.522Z,100974.67
2018-08-20T08:30:28.441Z,100976.72
2018-08-20T08:33:36.463Z,100983.70
2018-08-20T08:40:02.728Z,100978.09
2018-08-20T08:46:30.786Z,100985.22
2018-08-20T08:49:34.712Z,100980.43
2018-08-20T08:52:38.408Z,100994.89
2018-08-20T08:55:42.183Z,100988.09
2018-08-20T08:58:45.994Z,100987.55
2018-08-20T09:01:50.980Z,100980.63
2018-08-20T09:04:54.901Z,100981.97
2018-08-20T09:07:59.007Z,100993.49
2018-08-20T09:11:02.746Z,100983.17
2018-08-20T09:14:06.447Z,100973.50
2018-08-20T09:17:10.474Z,100979.27
2018-08-20T09:20:15.690Z,100982.33
2018-08-20T09:23:19.691Z,100969.58
2018-08-20T09:26:24.665Z,100986.92
2018-08-20T09:29:29.717Z,100974.69
2018-08-20T09:32:33.507Z,100982.50
2018-08-20T09:35:38.189Z,100979.95
2018-08-20T09:38:44.266Z,100974.34
2018-08-20T09:41:49.357Z,100985.58
2018-08-20T09:44:54.317Z,100984.22
2018-08-20T09:47:59.364Z,100980.83
2018-08-20T09:51:04.781Z,100982.70
2018-08-20T09:54:08.933Z,100979.11
2018-08-20T09:57:13.773Z,100984.08
2018-08-20T10:00:23.638Z,100984.73
2018-08-20T10:03:28.206Z,100983.38
2018-08-20T10:06:33.778Z,100983.38
2018-08-20T10:09:39.453Z,100971.83
2018-08-20T10:12:44.701Z,100982.52
2018-08-20T10:15:49.788Z,100981.19
2018-08-20T10:18:54.958Z,100991.02
2018-08-20T10:22:00.774Z,100984.56
2018-08-20T10:25:06.749Z,100983.67
2018-08-20T10:28:10.640Z,100988.95
2018-08-20T10:31:16.503Z,100988.27
2018-08-20T10:34:20.307Z,100990.83
2018-08-20T10:37:24.199Z,100988.64
2018-08-20T10:40:28.120Z,100992.37
2018-08-20T10:43:33.629Z,100987.93
2018-08-20T10:46:37.625Z,100993.71
2018-08-20T10:49:42.097Z,100988.48
2018-08-20T10:52:48.999Z,100995.92
2018-08-20T10:55:53.107Z,100995.26
2018-08-20T10:58:57.874Z,101001.23
2018-08-20T11:02:02.064Z,101005.47
2018-08-20T11:05:06.934Z,100992.05
2018-08-20T11:08:10.882Z,100991.04
2018-08-20T11:11:14.968Z,100993.61
2018-08-20T11:14:19.020Z,100988.45
2018-08-20T11:17:24.583Z,100989.78
2018-08-20T11:20:29.824Z,100997.77
2018-08-20T11:23:36.249Z,100990.61
2018-08-20T11:26:40.058Z,100998.11
2018-08-20T11:29:43.688Z,100996.61
2018-08-20T11:32:47.718Z,100993.02
2018-08-20T11:35:52.697Z,100990.67
2018-08-20T11:38:56.443Z,100990.83
2018-08-20T11:42:01.032Z,101002.42
2018-08-20T11:45:05.049Z,100995.45
2018-08-20T11:48:16.178Z,101003.25
2018-08-20T11:51:19.994Z,100994.27
2018-08-20T11:54:24.080Z,100992.04
2018-08-20T11:57:28.143Z,100999.17
2018-08-20T12:00:32.003Z,100992.73
2018-08-20T12:03:36.392Z,100990.35
2018-08-20T12:06:40.891Z,100999.70
2018-08-20T12:09:44.786Z,100999.70
2018-08-20T12:12:48.593Z,101000.23
2018-08-20T12:15:52.591Z,101003.63
2018-08-20T12:18:58.044Z,100996.48
2018-08-20T12:22:01.895Z,100999.54
2018-08-20T12:25:06.627Z,100997.52
2018-08-20T12:28:10.389Z,100999.90
2018-08-20T12:31:14.216Z,101002.58
2018-08-20T12:34:18.226Z,101013.95
2018-08-20T12:37:23.011Z,101007.18
2018-08-20T12:40:26.986Z,101009.53
2018-08-20T12:43:30.699Z,101018.55
2018-08-20T12:46:35.769Z,101015.84
2018-08-20T12:49:40.631Z,101007.69
2018-08-20T12:52:45.207Z,101007.52
2018-08-20T12:55:50.962Z,101005.84
2018-08-20T12:58:55.880Z,101005.00
2018-08-20T13:01:59.687Z,101002.79
2018-08-20T13:05:03.606Z,101008.40
2018-08-20T13:08:08.043Z,101001.27
2018-08-20T13:11:11.936Z,101006.00
2018-08-20T13:14:15.844Z,101006.01
2018-08-20T13:17:19.701Z,101011.62
2018-08-20T13:20:23.584Z,101010.42
2018-08-20T13:23:28.491Z,101009.23
2018-08-20T13:26:32.424Z,101008.03
2018-08-20T13:29:37.250Z,101002.96
2018-08-20T13:32:43.040Z,101011.25
2018-08-20T13:35:48.113Z,101013.14
2018-08-20T13:38:52.097Z,101007.00
2018-08-20T13:41:56.284Z,101007.00
2018-08-20T13:45:00.378Z,101009.23
2018-08-20T13:48:05.360Z,101004.28
2018-08-20T13:51:11.158Z,101005.98
2018-08-20T13:54:14.927Z,101003.59
2018-08-20T13:57:20.128Z,100994.06
2018-08-20T14:00:24.968Z,100995.42
2018-08-20T14:03:29.871Z,100999.00
2018-08-20T14:06:34.240Z,100996.11
2018-08-20T14:09:39.220Z,101002.55
2018-08-20T14:12:43.984Z,100993.02
2018-08-20T14:15:47.839Z,100997.30
2018-08-20T14:18:52.960Z,100999.87
2018-08-20T14:21:57.334Z,100994.06
2018-08-20T14:25:01.258Z,100998.78
2018-08-20T14:28:07.010Z,100998.98
2018-08-20T14:31:10.863Z,100996.72
2018-08-20T14:34:14.970Z,100996.36
2018-08-20T14:37:18.729Z,100998.35
2018-08-20T14:40:24.995Z,100998.86
2018-08-20T14:43:29.219Z,100985.80
2018-08-20T14:46:33.027Z,100983.73
2018-08-20T14:49:36.978Z,100993.66
2018-08-20T14:52:41.265Z,100990.63
2018-08-20T14:59:22.920Z,100991.89
2018-08-20T15:02:26.927Z,100992.93
2018-08-20T15:05:30.766Z,100995.03
2018-08-20T15:08:39.632Z,101002.17
2018-08-20T15:11:43.661Z,100992.86
2018-08-20T15:14:47.722Z,100999.81
2018-08-20T15:17:53.846Z,100992.67
2018-08-20T15:20:58.822Z,101003.08
2018-08-20T15:24:02.580Z,100996.28
2018-08-20T15:27:07.474Z,101000.86
2018-08-20T15:30:12.238Z,101003.78
2018-08-20T15:33:17.309Z,101007.17
2018-08-20T15:36:21.275Z,101018.09
2018-08-20T15:39:26.949Z,101014.70
2018-08-20T15:42:32.807Z,101022.66
2018-08-20T15:45:38.449Z,101013.34
2018-08-20T15:48:42.368Z,101018.08
2018-08-20T15:51:46.141Z,101000.06
2018-08-20T15:54:51.052Z,101007.03
2018-08-20T15:57:55.885Z,101015.35
2018-08-20T16:01:01.200Z,101011.43
2018-08-20T16:04:05.569Z,101013.50
2018-08-20T16:07:09.379Z,101019.22
2018-08-20T16:10:13.450Z,101018.55
2018-08-20T16:13:17.482Z,101019.05
2018-08-20T16:16:21.986Z,101003.93
2018-08-20T16:19:25.868Z,101000.03
2018-08-20T16:22:32.105Z,101004.27
2018-08-20T16:25:36.318Z,101003.41
2018-08-20T16:28:40.161Z,101004.61
2018-08-20T16:31:44.186Z,101003.25
2018-08-20T16:34:49.183Z,101002.73
2018-08-20T16:37:53.212Z,100991.70
2018-08-20T16:40:57.456Z,100991.02
2018-08-20T16:44:01.739Z,100989.33
2018-08-20T16:47:07.093Z,100987.80
2018-08-20T16:50:12.590Z,100986.42
2018-08-20T16:53:16.810Z,100988.81
2018-08-20T16:56:23.185Z,100992.03
2018-08-20T16:59:28.197Z,100992.02
2018-08-20T17:02:32.267Z,100983.86
2018-08-20T17:05:44.179Z,100989.14
2018-08-20T17:08:48.245Z,100987.27
2018-08-20T17:11:52.206Z,100981.84
2018-08-20T17:14:57.183Z,100978.09
2018-08-20T17:18:01.926Z,100976.39
2018-08-20T17:21:05.971Z,100972.16
2018-08-20T17:24:09.947Z,100970.95
2018-08-20T17:27:16.757Z,100983.52
2018-08-20T17:30:24.739Z,100987.93
2018-08-20T17:33:32.261Z,100978.43
2018-08-20T17:36:40.866Z,100979.78
2018-08-20T17:39:57.159Z,100986.05
2018-08-20T17:43:01.349Z,100981.99
2018-08-20T17:46:05.627Z,100987.95
2018-08-20T17:49:20.684Z,100984.22
2018-08-20T17:52:36.366Z,100996.76
2018-08-20T17:55:42.037Z,100992.16
2018-08-20T17:58:59.444Z,101001.19
2018-08-20T18:02:04.168Z,101009.16
2018-08-20T18:05:09.373Z,101013.41
2018-08-20T18:08:13.400Z,101009.30
2018-08-20T18:11:19.472Z,101010.81
2018-08-20T18:14:25.858Z,101016.94
2018-08-20T18:17:30.427Z,101023.55
2018-08-20T18:20:40.126Z,101026.08
2018-08-20T18:23:45.102Z,101028.07
2018-08-20T18:26:53.487Z,101026.53
2018-08-20T18:30:01.809Z,101020.06
2018-08-20T18:33:15.543Z,101022.78
2018-08-20T18:36:20.673Z,101029.52
2018-08-20T18:39:24.481Z,101032.12
2018-08-20T18:42:38.814Z,101038.41
2018-08-20T19:00:26.685Z,101056.03
2018-08-20T19:04:09.029Z,101059.44
2018-08-20T19:29:30.671Z,101061.79
2018-08-20T19:32:51.216Z,101067.87
2018-08-20T20:01:46.032Z,101057.48
2018-08-20T20:04:49.785Z,101055.61
2018-08-20T20:08:02.582Z,101055.61
2018-08-20T20:11:14.391Z,101050.87
2018-08-20T20:14:18.148Z,101049.32
2018-08-20T20:17:23.660Z,101057.59
2018-08-20T20:20:27.212Z,101059.31
2018-08-20T20:23:30.827Z,101058.27
2018-08-20T20:26:34.515Z,101068.77
2018-08-20T20:29:38.233Z,101068.58
2018-08-20T20:32:41.831Z,101060.75
2018-08-20T20:35:45.423Z,101066.20
2018-08-20T20:38:49.007Z,101071.61
2018-08-20T20:41:52.509Z,101078.23
2018-08-20T20:44:56.302Z,101071.18
2018-08-20T20:47:59.811Z,101080.77
2018-08-20T20:51:03.922Z,101083.97
2018-08-20T20:54:07.526Z,101087.84
2018-08-20T20:57:11.024Z,101086.27
2018-08-20T21:00:14.674Z,101097.16
2018-08-20T21:03:18.205Z,101098.29
2018-08-20T21:06:21.548Z,101097.58
2018-08-20T21:09:25.615Z,101101.04
2018-08-20T21:12:38.722Z,101102.28
2018-08-20T21:15:42.507Z,101107.22
2018-08-20T21:30:57.386Z,101128.08
2018-08-20T22:52:04.399Z,101193.86
2018-08-20T22:55:24.791Z,101196.35
2018-08-20T23:02:14.447Z,101195.67
2018-08-20T23:05:50.129Z,101190.20
2018-08-20T23:10:09.975Z,101187.89
2018-08-20T23:28:08.410Z,101200.97
2018-08-20T23:31:20.317Z,101198.30
2018-08-20T23:34:33.734Z,101200.70
2018-08-20T23:37:49.847Z,101212.66
2018-08-20T23:41:18.682Z,101211.16
2018-08-20T23:44:27.840Z,101213.23
2018-08-20T23:47:39.698Z,101223.09
2018-08-20T23:51:05.420Z,101216.57
2018-08-20T23:54:17.391Z,101220.13
2018-08-20T23:57:33.781Z,101222.63
